Alamo, GA

5:16 AM EDT on July 25, 2014 (GMT -0400)
Alamo (KGAALAMO2) Elev 259 ft | 32.07 °N, 82.73 °W | Change Station

Current weather conditions updated 10 minutes ago

Partly Cloudy
Partly Cloudy
73.9 °F
Feels Like 73.9 °F
N
2.7
Wind Variable Wind from WNW

Today is forecast to be Cooler than yesterday. Afternoon thunderstorms.

Today
High -- | Low -- °F
--% Chance of Precip.
Yesterday
High -- | Low -- °F
Precip. -- in
6:41 AM 8:33 PM
Waning Crescent, 2% visible
Pressure 29.99 in
Visibility 10.0 miles
Clouds Clear
Dew Point 74 °F
Humidity 99%
Rainfall 0.00 in
Snow Depth Not available.
UV 0 out of 12
Pollen 4.40 out of 12
Air Quality Not available.
Flu Activity Not available.
METAR KAZE 250855Z AUTO 00000KT 10SM CLR 25/25 A2999 RMK AO2 T02510245

More Conditions Fewer Conditions

Pressure 29.99 in
Visibility 10.0 miles
Clouds Clear
Dew Point 74 °F
Humidity 99%
Rainfall 0.00 in
Snow Depth Not available.
UV 0 out of 12
Pollen 4.40 out of 12
Air Quality Not available.
Flu Activity Not available.
METAR KAZE 250855Z AUTO 00000KT 10SM CLR 25/25 A2999 RMK AO2 T02510245

More Conditions Fewer Conditions

10-Day Weather Forecast

Almanac

Astronomy

Jul. 25, 2014 Rise Set
Actual Time 6:41 AM EDT 8:33 PM EDT
Civil Twilight 6:14 AM EDT 9:00 PM EDT
Nautical Twilight 5:41 AM EDT 9:33 PM EDT
Astronomical Twilight 5:06 AM EDT 10:07 PM EDT
Moon 5:37 AM EDT 7:32 PM EDT
Length of Visible Light 14h 45m
Length of Day
13h 51m
Tomorrow will be 1m 17s shorter.
Waning Crescent, 2% of the Moon is Illuminated
Today
Waning Crescent
Jul 26
New
Aug 3
First Quarter
Aug 10
Full
Aug 17
Last Quarter

Today's Extremes

State Highs State Lows

Community

WunderPhotos

Upload Photos

1,737,276 photos uploaded!

Nearby

Snow Depth

Station Depth Elevation
No new snow has been reported.

Earthquake Activity

City Distance Mag. Time & Date
No recent earthquake activity has been reported nearby.
Minimum magnitude displayed is 2.5.

Coastal Water Temperatures

Place Temperature
No Stations Reporting

Nearby Weather Stations

Station Location Temp. Heat Index Dew Point Humidity Wind Precip. Elev Updated Type
Alamo, Alamo, GA 73.9 °F - 74 °F 99% WNW  at  2.7 mph - / hr 259 ft 5:05 AM EDT Normal
RAWS MCRAE GA, McRae, GA 76 °F 76 °F 73 °F 89% SSW  at  3 mph 0.00 in / hr 201 ft 4:03 AM EDT MADIS
South Treutlen Co., Soperton, GA 73.6 °F - 73 °F 98% North  at  0.0 mph 0.00 in / hr 236 ft 5:15 AM EDT Rapid Fire
SW of Chauncey, Chauncey, GA 73.4 °F 74 °F 67 °F 80% ENE  at  0.0 mph 0.00 in / hr 367 ft 5:16 AM EDT Rapid Fire
Jacksonville, GA 73.3 °F - 72 °F 97% SE  at  0.0 mph 0.00 in / hr 171 ft 5:03 AM EDT Normal
Eastman, Eastman, GA 73.4 °F - 73 °F 99% South  at  0.0 mph - / hr 381 ft 5:15 AM EDT Normal

Show More Stations Show Fewer Stations